Steele City, NE (68440)

1:20 PM CDT on September 03, 2015 (GMT -0500)
Cornhusker Country U.S.A. | | Change Station
CLOSE
Current Station
Personal Weather Station
Location: Odell, NE
Elevation: 1325 ft
Nearby Weather Stations

Elev 1325 ft 40.05 °N, 96.80 °W | Updated 16 seconds ago

Clear
Clear
91.6 °F
Feels Like 99 °F
N
4.0
Wind Variable Wind from South
Gusts 4.9 mph

Today
High -- | Low -- °F
--% Chance of Precip.
Yesterday
High -- | Low -- °F
Precip. -- in
6:57 AM 7:56 PM
Waning Gibbous, 68% visible
Pressure 29.84 in
Visibility 10.0 miles
Clouds Clear
Heat Index 99 °F
Dew Point 72 °F
Humidity 52%
Rainfall 0.00 in
Snow Depth Not available.
UV 6.0 out of 12
Pollen 11.30 out of 12
Air Quality Not available.
Flu Activity Not available.
METAR KBIE 031815Z AUTO 16012G16KT 10SM CLR 32/20 A2984 RMK AO2 T03210202
Pressure 29.84 in
Visibility 10.0 miles
Clouds Clear
Heat Index 99 °F
Dew Point 72 °F
Humidity 52%
Rainfall 0.00 in
Snow Depth Not available.
UV 6.0 out of 12
Pollen 11.30 out of 12
Air Quality Not available.
Flu Activity Not available.
METAR KBIE 031815Z AUTO 16012G16KT 10SM CLR 32/20 A2984 RMK AO2 T03210202

10-Day Weather Forecast

×

Almanac

Astronomy

Sep. 03, 2015 Rise Set
Actual Time
Civil Twilight
Nautical Twilight
Astronomical Twilight
Moon
Length of Visible Light
Length of Day
Tomorrow will be .
, % of the Moon is Illuminated

Today's Extremes

State Highs State Lows

Community

WunderPhotos

Upload Photos

1,851,999 photos uploaded!

WunderBlogs® & News

Nearby

Air Quality

  Air Quality AQ Index Pollutant
Not available.

Snow Depth

Station Depth Elevation

Earthquake Activity

City Distance Mag. Time & Date
Minimum magnitude displayed is 2.5.

Coastal Water Temperatures

Place Temperature

Stations

Nearby Weather Stations

Station Location Temp. Windchill Dew Point Humidity Wind Precip. Elev Updated Type